Webster Springs, WV

5:34 PM EST on December 02, 2016 (GMT -0500)
FERN RIDGE MINIATURE DONKEY FARM , WEBSTER SPRINGS,WV | | Change Station

Elev 1919 ft 38.53 °N, 80.41 °W | Updated 14 minutes ago

Overcast
Overcast
32.5 °F
Feels Like 29 °F
N
3.7
Wind Variable Wind from ENE

Today
High -- | Low -- °F
--% Chance of Precip.
Yesterday
High -- | Low -- °F
Precip. -- in
Pressure 30.21 in
Visibility 10.0 miles
Clouds Overcast 1700 ft
Windchill 29 °F
Dew Point 29 °F
Humidity 88%
Rainfall 0.00 in
Snow Depth Not available.
7:21 AM 5:00 PM
Waxing Crescent, 11% visible
METAR KEKN 022151Z AUTO 24005KT 10SM OVC017 01/M04 A3014 RMK AO2 UPB03E13SNB02E03 SLP228 P0000 T00061039
Pressure 30.21 in
Visibility 10.0 miles
Clouds Overcast 1700 ft
Windchill 29 °F
Dew Point 29 °F
Humidity 88%
Rainfall 0.00 in
Snow Depth Not available.
7:21 AM 5:00 PM
Waxing Crescent, 11% visible
METAR KEKN 022151Z AUTO 24005KT 10SM OVC017 01/M04 A3014 RMK AO2 UPB03E13SNB02E03 SLP228 P0000 T00061039

10-Day Weather Forecast

Almanac

Astronomy

Dec. 02, 2016 Rise Set
Actual Time
Civil Twilight
Nautical Twilight
Astronomical Twilight
Moon
Length of Visible Light
Length of Day
Tomorrow will be .
, % of the Moon is Illuminated

Today's Extremes

State Highs State Lows

Community

WunderPhotos

Upload Photos

1,955,376 photos uploaded!

WunderBlog® & News

Nearby

Air Quality

  Air Quality AQ Index Pollutant
Not available.

Snow Depth

Station Depth Elevation

Earthquake Activity

City Distance Mag. Time & Date
Minimum magnitude displayed is 2.5.

Coastal Water Temperatures

Place Temperature

Stations

Nearby Weather Stations

Station Location Temp. Windchill Dew Point Humidity Wind Precip. Elev Updated Type
                   

Watches & Warnings

There are currently no watches in effect.